createdAt,value
2022-10-18T00:02:26.189Z,102068.88
2022-10-18T00:04:52.649Z,102074.63
2022-10-18T00:07:19.101Z,102076.81
2022-10-18T00:09:45.952Z,102073.81
2022-10-18T00:12:12.693Z,102078.72
2022-10-18T00:14:39.228Z,102071.06
2022-10-18T00:17:05.709Z,102072.16
2022-10-18T00:19:32.365Z,102076.28
2022-10-18T00:21:58.950Z,102072.16
2022-10-18T00:24:25.653Z,102082.84
2022-10-18T00:26:52.106Z,102086.13
2022-10-18T00:29:18.590Z,102081.19
2022-10-18T00:31:45.199Z,102085.31
2022-10-18T00:34:13.908Z,102087.50
2022-10-18T00:36:41.051Z,102086.94
2022-10-18T00:39:09.413Z,102086.13
2022-10-18T00:41:37.927Z,102091.59
2022-10-18T00:44:27.470Z,102086.13
2022-10-18T00:46:58.603Z,102100.09
2022-10-18T00:49:34.221Z,102088.88
2022-10-18T00:52:05.036Z,102104.78
2022-10-18T00:54:34.762Z,102109.97
2022-10-18T00:57:02.317Z,102109.13
2022-10-18T00:59:29.921Z,102109.16
2022-10-18T01:01:56.912Z,102109.41
2022-10-18T01:04:23.827Z,102107.25
2022-10-18T01:07:27.655Z,102102.31
2022-10-18T01:10:05.230Z,102102.31
2022-10-18T01:13:10.138Z,102094.09
2022-10-18T01:16:11.173Z,102096.81
2022-10-18T01:18:44.151Z,102094.09
2022-10-18T01:21:13.493Z,102095.44
2022-10-18T01:24:13.816Z,102089.69
2022-10-18T01:26:50.363Z,102093.56
2022-10-18T01:29:33.324Z,102085.88
2022-10-18T01:32:04.936Z,102077.09
2022-10-18T01:34:35.094Z,102083.41
2022-10-18T01:37:07.795Z,102082.56
2022-10-18T01:39:38.530Z,102077.09
2022-10-18T01:42:08.834Z,102073.53
2022-10-18T01:44:36.804Z,102068.88
2022-10-18T01:47:05.013Z,102072.72
2022-10-18T01:49:33.337Z,102066.97
2022-10-18T01:51:59.890Z,102063.97
2022-10-18T01:54:41.183Z,102065.84
2022-10-18T01:57:42.414Z,102059.31
2022-10-18T02:00:16.611Z,102057.66
2022-10-18T02:02:57.011Z,102064.78
2022-10-18T02:05:32.565Z,102066.66
2022-10-18T02:08:18.751Z,102062.31
2022-10-18T02:10:54.314Z,102060.91
2022-10-18T02:13:23.857Z,102060.38
2022-10-18T02:15:56.279Z,102059.03
2022-10-18T02:18:32.550Z,102062.84
2022-10-18T02:21:02.626Z,102055.97
2022-10-18T02:23:30.776Z,102052.97
2022-10-18T02:25:57.697Z,102045.34
2022-10-18T02:31:14.473Z,102048.34
2022-10-18T02:34:06.615Z,102049.44
2022-10-18T02:36:37.897Z,102047.78
2022-10-18T02:39:08.878Z,102051.34
2022-10-18T02:41:35.411Z,102052.44
2022-10-18T02:44:02.227Z,102054.38
2022-10-18T02:46:28.806Z,102051.09
2022-10-18T02:48:55.250Z,102047.78
2022-10-18T02:51:21.727Z,102046.97
2022-10-18T02:53:48.150Z,102043.41
2022-10-18T02:56:14.627Z,102043.69
2022-10-18T02:58:41.077Z,102044.22
2022-10-18T03:01:07.629Z,102047.22
2022-10-18T03:03:34.146Z,102052.69
2022-10-18T03:06:00.877Z,102046.16
2022-10-18T03:08:28.705Z,102040.66
2022-10-18T03:10:55.140Z,102043.41
2022-10-18T03:13:22.011Z,102041.75
2022-10-18T03:15:48.695Z,102035.47
2022-10-18T03:18:15.667Z,102038.47
2022-10-18T03:20:42.744Z,102040.94
2022-10-18T03:23:09.262Z,102046.69
2022-10-18T03:25:35.793Z,102041.19
2022-10-18T03:28:02.917Z,102029.69
2022-10-18T03:30:29.690Z,102036.50
2022-10-18T03:32:56.253Z,102029.63
2022-10-18T03:35:22.776Z,102033.75
2022-10-18T03:37:49.379Z,102031.56
2022-10-18T03:40:16.212Z,102030.75
2022-10-18T03:42:42.900Z,102028.81
2022-10-18T03:45:09.798Z,102023.06
2022-10-18T03:47:36.205Z,102024.72
2022-10-18T03:50:03.031Z,102029.09
2022-10-18T03:52:30.030Z,102021.16
2022-10-18T03:54:56.807Z,102012.13
2022-10-18T03:57:23.595Z,102016.22
2022-10-18T03:59:50.183Z,102015.41
2022-10-18T04:02:16.753Z,102021.13
2022-10-18T04:04:43.262Z,102014.84
2022-10-18T04:07:09.696Z,102009.63
2022-10-18T04:09:36.187Z,102015.13
2022-10-18T04:12:02.906Z,102020.59
2022-10-18T04:14:29.764Z,102028.50
2022-10-18T04:16:56.232Z,102027.13
2022-10-18T04:19:22.651Z,102031.25
2022-10-18T04:21:49.107Z,102033.13
2022-10-18T04:24:17.849Z,102029.31
2022-10-18T04:26:44.338Z,102024.13
2022-10-18T04:29:11.045Z,102036.72
2022-10-18T04:31:37.543Z,102032.88
2022-10-18T04:34:04.450Z,102033.41
2022-10-18T04:36:31.642Z,102029.03
2022-10-18T04:38:58.486Z,102029.03
2022-10-18T04:41:25.141Z,102028.75
2022-10-18T04:43:51.640Z,102031.75
2022-10-18T04:46:18.381Z,102020.56
2022-10-18T04:48:45.361Z,102016.44
2022-10-18T04:51:11.886Z,102026.81
2022-10-18T04:53:38.387Z,102020.50
2022-10-18T04:56:05.306Z,102028.16
2022-10-18T04:58:32.701Z,102030.91
2022-10-18T05:01:07.149Z,102037.47
2022-10-18T05:03:34.235Z,102031.16
2022-10-18T05:06:02.871Z,102044.56
2022-10-18T05:08:32.438Z,102041.81
2022-10-18T05:11:00.131Z,102031.16
2022-10-18T05:13:30.001Z,102042.34
2022-10-18T05:15:56.690Z,102049.19
2022-10-18T05:18:23.132Z,102048.66
2022-10-18T05:20:49.534Z,102052.75
2022-10-18T05:23:15.959Z,102051.38
2022-10-18T05:25:43.368Z,102051.38
2022-10-18T05:28:34.602Z,102044.81
2022-10-18T05:31:01.277Z,102042.59
2022-10-18T05:33:30.067Z,102049.72
2022-10-18T05:35:56.905Z,102054.13
2022-10-18T05:38:24.105Z,102052.72
2022-10-18T05:40:50.674Z,102051.66
2022-10-18T05:43:20.042Z,102048.06
2022-10-18T05:45:50.893Z,102058.47
2022-10-18T05:48:17.799Z,102061.75
2022-10-18T05:50:44.923Z,102053.25
2022-10-18T05:53:31.780Z,102053.53
2022-10-18T05:56:02.200Z,102062.59
2022-10-18T05:58:29.115Z,102065.31
2022-10-18T06:00:59.890Z,102060.94
2022-10-18T06:03:27.694Z,102061.19
2022-10-18T06:06:00.366Z,102056.81
2022-10-18T06:08:29.248Z,102062.28
2022-10-18T06:10:55.885Z,102060.66
2022-10-18T06:13:22.443Z,102071.31
2022-10-18T06:15:49.181Z,102062.84
2022-10-18T06:18:16.157Z,102080.31
2022-10-18T06:20:42.763Z,102075.13
2022-10-18T06:23:09.298Z,102082.00
2022-10-18T06:25:35.740Z,102087.75
2022-10-18T06:28:07.740Z,102092.94
2022-10-18T06:30:36.978Z,102090.78
2022-10-18T06:33:04.449Z,102091.31
2022-10-18T06:35:31.102Z,102091.31
2022-10-18T06:37:57.751Z,102093.25
2022-10-18T06:40:24.468Z,102084.78
2022-10-18T06:43:00.133Z,102085.59
2022-10-18T06:45:34.177Z,102093.53
2022-10-18T06:48:01.032Z,102096.25
2022-10-18T06:50:28.811Z,102100.06
2022-10-18T06:52:55.374Z,102108.00
2022-10-18T06:55:21.897Z,102105.28
2022-10-18T06:57:48.501Z,102104.47
2022-10-18T07:00:15.522Z,102106.69
2022-10-18T07:02:41.993Z,102100.94
2022-10-18T07:05:09.427Z,102097.41
2022-10-18T07:07:36.174Z,102098.22
2022-10-18T07:10:04.935Z,102102.91
2022-10-18T07:12:32.738Z,102103.72
2022-10-18T07:14:59.589Z,102112.50
2022-10-18T07:17:26.854Z,102112.50
2022-10-18T07:19:53.477Z,102113.34
2022-10-18T07:22:19.995Z,102115.25
2022-10-18T07:24:46.492Z,102121.28
2022-10-18T07:27:13.000Z,102116.63
2022-10-18T07:29:40.433Z,102113.34
2022-10-18T07:32:07.016Z,102113.38
2022-10-18T07:34:33.552Z,102115.31
2022-10-18T07:37:02.844Z,102116.94
2022-10-18T07:39:29.934Z,102111.75
2022-10-18T07:41:56.695Z,102123.53
2022-10-18T07:44:23.271Z,102134.81
2022-10-18T07:46:49.774Z,102125.53
2022-10-18T07:49:17.079Z,102132.09
2022-10-18T07:51:47.894Z,102118.69
2022-10-18T07:54:14.404Z,102122.81
2022-10-18T07:56:41.311Z,102120.63
2022-10-18T07:59:09.427Z,102120.38
2022-10-18T08:01:36.004Z,102121.22
2022-10-18T08:04:07.204Z,102126.13
2022-10-18T08:06:35.451Z,102130.78
2022-10-18T08:09:02.798Z,102129.16
2022-10-18T08:11:29.374Z,102127.78
2022-10-18T08:13:55.836Z,102123.69
2022-10-18T08:16:25.365Z,102114.06
2022-10-18T08:18:52.624Z,102109.69
2022-10-18T08:21:20.579Z,102107.75
2022-10-18T08:23:47.768Z,102111.88
2022-10-18T08:26:19.537Z,102111.59
2022-10-18T08:28:53.909Z,102115.16
2022-10-18T08:31:31.112Z,102121.19
2022-10-18T08:33:57.716Z,102116.81
2022-10-18T08:36:24.608Z,102119.56
2022-10-18T08:38:51.705Z,102134.91
2022-10-18T08:41:33.740Z,102145.88
2022-10-18T08:44:11.863Z,102144.53
2022-10-18T08:46:44.165Z,102148.88
2022-10-18T08:49:26.484Z,102147.78
2022-10-18T08:51:53.981Z,102155.19
2022-10-18T08:55:00.544Z,102156.81
2022-10-18T08:57:27.032Z,102145.59
2022-10-18T08:59:53.671Z,102143.13
2022-10-18T09:02:41.976Z,102157.66
2022-10-18T09:05:48.988Z,102166.44
2022-10-18T09:08:37.398Z,102167.25
2022-10-18T09:11:34.396Z,102166.69
2022-10-18T09:14:38.411Z,102166.97
2022-10-18T09:17:23.763Z,102172.97
2022-10-18T09:20:03.579Z,102178.47
2022-10-18T09:22:52.243Z,102166.44
2022-10-18T09:25:23.368Z,102173.00
2022-10-18T09:28:04.606Z,102177.41
2022-10-18T09:30:49.499Z,102174.66
2022-10-18T09:33:34.714Z,102177.13
2022-10-18T09:36:07.798Z,102180.13
2022-10-18T09:39:12.118Z,102183.13
2022-10-18T09:41:49.798Z,102186.47
2022-10-18T09:44:24.405Z,102187.00
2022-10-18T09:46:57.805Z,102183.41
2022-10-18T09:49:36.264Z,102180.41
2022-10-18T09:52:09.102Z,102182.63
2022-10-18T09:54:45.145Z,102192.75
2022-10-18T09:57:42.929Z,102188.91
2022-10-18T10:00:26.017Z,102186.72
2022-10-18T10:02:52.518Z,102191.09
2022-10-18T10:05:19.691Z,102191.66
2022-10-18T10:07:47.919Z,102193.84
2022-10-18T10:10:29.350Z,102195.78
2022-10-18T10:13:16.054Z,102195.22
2022-10-18T10:15:53.438Z,102199.63
2022-10-18T10:18:22.393Z,102206.72
2022-10-18T10:20:53.291Z,102206.19
2022-10-18T10:23:50.635Z,102211.38
2022-10-18T10:26:24.694Z,102220.72
2022-10-18T10:28:51.617Z,102211.13
2022-10-18T10:31:25.171Z,102217.13
2022-10-18T10:34:14.096Z,102210.84
2022-10-18T10:36:51.790Z,102208.91
2022-10-18T10:39:20.132Z,102204.53
2022-10-18T10:41:48.131Z,102214.97
2022-10-18T10:44:18.268Z,102214.16
2022-10-18T10:46:46.283Z,102202.06
2022-10-18T10:49:40.635Z,102195.22
2022-10-18T10:52:26.220Z,102193.03
2022-10-18T10:55:05.920Z,102191.34
2022-10-18T10:57:47.259Z,102197.66
2022-10-18T11:00:43.666Z,102183.34
2022-10-18T11:03:34.000Z,102184.69
2022-10-18T11:06:02.849Z,102181.56
2022-10-18T11:08:38.655Z,102195.06
2022-10-18T11:11:22.256Z,102185.22
2022-10-18T11:14:13.542Z,102182.09
2022-10-18T11:16:58.981Z,102182.91
2022-10-18T11:19:56.850Z,102185.03
2022-10-18T11:22:25.907Z,102179.56
2022-10-18T11:24:52.392Z,102178.25
2022-10-18T11:27:29.671Z,102177.34
2022-10-18T11:30:06.172Z,102170.72
2022-10-18T11:33:03.508Z,102167.38
2022-10-18T11:35:47.611Z,102183.19
2022-10-18T11:38:52.005Z,102160.31
2022-10-18T11:41:42.872Z,102160.53
2022-10-18T11:44:36.718Z,102162.97
2022-10-18T11:47:33.407Z,102163.13
2022-10-18T11:50:12.891Z,102164.03
2022-10-18T11:52:53.028Z,102168.66
2022-10-18T11:55:36.657Z,102164.69
2022-10-18T11:58:26.664Z,102168.47
2022-10-18T12:01:12.869Z,102171.41
2022-10-18T12:03:55.798Z,102171.47
2022-10-18T12:06:26.462Z,102176.44
2022-10-18T12:08:57.951Z,102163.22
2022-10-18T12:11:29.542Z,102152.72
2022-10-18T12:14:00.438Z,102162.97
2022-10-18T12:16:51.063Z,102151.22
2022-10-18T12:19:32.161Z,102156.44
2022-10-18T12:22:13.738Z,102163.16
2022-10-18T12:24:41.946Z,102156.84
2022-10-18T12:27:13.161Z,102153.16
2022-10-18T12:29:51.430Z,102151.81
2022-10-18T12:32:24.645Z,102156.72
2022-10-18T12:35:11.279Z,102156.91
2022-10-18T12:38:06.258Z,102150.19
2022-10-18T12:40:44.302Z,102154.09
2022-10-18T12:43:18.807Z,102155.69
2022-10-18T12:45:53.055Z,102155.09
2022-10-18T12:49:03.085Z,102166.63
2022-10-18T12:51:33.179Z,102159.94
2022-10-18T12:54:02.435Z,102159.34
2022-10-18T12:56:29.291Z,102161.53
2022-10-18T12:59:14.250Z,102160.19
2022-10-18T13:01:52.996Z,102164.84
2022-10-18T13:04:29.062Z,102162.22
2022-10-18T13:06:59.464Z,102150.41
2022-10-18T13:09:31.466Z,102145.22
2022-10-18T13:12:10.038Z,102139.41
2022-10-18T13:14:59.071Z,102144.09
2022-10-18T13:17:54.797Z,102155.25
2022-10-18T13:20:44.305Z,102150.81
2022-10-18T13:23:25.761Z,102153.38
2022-10-18T13:26:10.893Z,102155.72
2022-10-18T13:28:59.432Z,102163.22
2022-10-18T13:31:47.654Z,102161.94
2022-10-18T13:34:25.213Z,102155.66
2022-10-18T13:37:23.739Z,102165.44
2022-10-18T13:39:52.133Z,102164.38
2022-10-18T13:42:28.504Z,102161.41
2022-10-18T13:44:55.108Z,102170.94
2022-10-18T13:47:36.035Z,102162.09
2022-10-18T13:50:30.727Z,102172.31
2022-10-18T13:53:24.881Z,102173.81
2022-10-18T13:56:14.932Z,102175.28
2022-10-18T13:59:14.534Z,102189.06
2022-10-18T14:01:56.021Z,102177.19
2022-10-18T14:04:51.308Z,102185.69
2022-10-18T14:07:19.328Z,102177.50
2022-10-18T14:09:54.256Z,102181.84
2022-10-18T14:12:28.653Z,102183.72
2022-10-18T14:15:03.355Z,102181.91
2022-10-18T14:17:45.270Z,102191.00
2022-10-18T14:20:49.113Z,102189.44
2022-10-18T14:23:47.933Z,102198.00
2022-10-18T14:26:16.945Z,102191.75
2022-10-18T14:29:00.565Z,102194.78
2022-10-18T14:31:28.121Z,102191.81
2022-10-18T14:33:58.284Z,102189.91
2022-10-18T14:36:35.823Z,102207.28
2022-10-18T14:39:05.850Z,102199.34
2022-10-18T14:41:40.301Z,102201.06
2022-10-18T14:44:15.774Z,102196.63
2022-10-18T14:46:59.487Z,102203.28
2022-10-18T14:49:26.584Z,102207.13
2022-10-18T14:51:56.432Z,102200.84
2022-10-18T14:54:31.653Z,102192.59
2022-10-18T14:57:01.117Z,102196.19
2022-10-18T14:59:32.330Z,102200.94
2022-10-18T15:02:02.251Z,102203.16
2022-10-18T15:04:33.346Z,102202.44
2022-10-18T15:07:03.537Z,102201.06
2022-10-18T15:09:33.233Z,102200.59
2022-10-18T15:12:02.215Z,102202.19
2022-10-18T15:14:30.481Z,102202.50
2022-10-18T15:17:04.923Z,102199.75
2022-10-18T15:19:42.190Z,102210.22
2022-10-18T15:25:16.517Z,102205.34
2022-10-18T15:27:46.561Z,102200.16
2022-10-18T15:30:22.704Z,102202.88
2022-10-18T15:32:52.841Z,102198.78
2022-10-18T15:35:26.501Z,102198.53
2022-10-18T15:37:54.904Z,102199.88
2022-10-18T15:40:21.265Z,102207.56
2022-10-18T15:42:49.883Z,102202.09
2022-10-18T15:45:25.372Z,102202.88
2022-10-18T15:48:09.138Z,102197.94
2022-10-18T15:50:39.548Z,102203.44
2022-10-18T15:53:21.063Z,102202.34
2022-10-18T15:55:59.605Z,102202.06
2022-10-18T15:58:32.179Z,102206.44
2022-10-18T16:01:03.562Z,102211.91
2022-10-18T16:03:34.466Z,102200.09
2022-10-18T16:06:07.633Z,102201.72
2022-10-18T16:08:40.935Z,102209.94
2022-10-18T16:11:12.793Z,102207.16
2022-10-18T16:13:39.307Z,102210.97
2022-10-18T16:16:06.104Z,102212.00
2022-10-18T16:18:33.430Z,102223.72
2022-10-18T16:21:04.569Z,102216.03
2022-10-18T16:23:31.465Z,102223.91
2022-10-18T16:25:58.080Z,102223.34
2022-10-18T16:28:25.695Z,102225.53
2022-10-18T16:31:00.222Z,102230.66
2022-10-18T16:33:29.213Z,102225.09
2022-10-18T16:35:56.253Z,102219.59
2022-10-18T16:38:32.812Z,102233.75
2022-10-18T16:41:04.497Z,102228.53
2022-10-18T16:43:31.650Z,102242.69
2022-10-18T16:45:58.209Z,102245.59
2022-10-18T16:48:25.374Z,102239.75
2022-10-18T16:50:54.666Z,102246.47
2022-10-18T16:53:23.792Z,102236.63
2022-10-18T16:55:56.131Z,102240.94
2022-10-18T17:00:55.851Z,102247.66
2022-10-18T17:03:22.592Z,102259.66
2022-10-18T17:05:49.236Z,102264.81
2022-10-18T17:08:22.032Z,102263.31
2022-10-18T17:10:52.830Z,102260.22
2022-10-18T17:13:20.474Z,102268.91
2022-10-18T17:15:47.329Z,102264.72
2022-10-18T17:18:16.202Z,102274.13
2022-10-18T17:20:43.654Z,102286.31
2022-10-18T17:23:10.942Z,102282.38
2022-10-18T17:25:51.473Z,102287.56
2022-10-18T17:28:27.382Z,102291.25
2022-10-18T17:30:53.936Z,102286.78
2022-10-18T17:33:20.544Z,102282.91
2022-10-18T17:35:48.615Z,102291.78
2022-10-18T17:38:15.931Z,102288.13
2022-10-18T17:40:43.391Z,102295.16
2022-10-18T17:43:10.269Z,102303.03
2022-10-18T17:45:36.793Z,102311.13
2022-10-18T17:48:03.535Z,102320.38
2022-10-18T17:50:30.016Z,102311.53
2022-10-18T17:52:57.290Z,102311.47
2022-10-18T17:55:23.717Z,102305.16
2022-10-18T17:57:51.392Z,102298.88
2022-10-18T18:00:17.969Z,102304.09
2022-10-18T18:02:44.989Z,102296.31
2022-10-18T18:05:12.587Z,102300.47
2022-10-18T18:07:39.061Z,102314.25
2022-10-18T18:10:06.068Z,102313.88
2022-10-18T18:12:32.888Z,102308.56
2022-10-18T18:14:59.761Z,102317.66
2022-10-18T18:17:34.161Z,102319.22
2022-10-18T18:20:06.979Z,102319.69
2022-10-18T18:22:35.226Z,102317.44
2022-10-18T18:25:04.855Z,102323.16
2022-10-18T18:27:31.774Z,102324.97
2022-10-18T18:29:58.326Z,102323.81
2022-10-18T18:32:24.869Z,102331.72
2022-10-18T18:34:51.303Z,102327.59
2022-10-18T18:37:17.742Z,102332.78
2022-10-18T18:39:44.454Z,102328.50
2022-10-18T18:42:10.992Z,102331.13
2022-10-18T18:44:37.524Z,102328.91
2022-10-18T18:47:08.397Z,102322.63
2022-10-18T18:49:37.461Z,102319.66
2022-10-18T18:52:04.178Z,102322.84
2022-10-18T18:54:31.694Z,102320.03
2022-10-18T18:56:58.831Z,102312.97
2022-10-18T18:59:25.414Z,102317.69
2022-10-18T19:01:51.859Z,102317.69
2022-10-18T19:04:18.520Z,102308.22
2022-10-18T19:06:46.680Z,102314.00
2022-10-18T19:09:19.671Z,102318.03
2022-10-18T19:11:48.095Z,102322.44
2022-10-18T19:14:14.990Z,102322.91
2022-10-18T19:16:48.756Z,102320.66
2022-10-18T19:19:18.968Z,102327.44
2022-10-18T19:21:49.063Z,102322.72
2022-10-18T19:24:16.158Z,102320.03
2022-10-18T19:26:47.497Z,102320.16
2022-10-18T19:29:26.325Z,102325.16
2022-10-18T19:31:55.116Z,102333.22
2022-10-18T19:34:23.436Z,102330.72
2022-10-18T19:36:50.565Z,102328.59
2022-10-18T19:39:22.449Z,102336.63
2022-10-18T19:41:51.192Z,102329.13
2022-10-18T19:44:19.212Z,102344.88
2022-10-18T19:46:46.430Z,102339.78
2022-10-18T19:49:13.013Z,102346.19
2022-10-18T19:51:39.826Z,102346.19
2022-10-18T19:54:06.501Z,102351.25
2022-10-18T19:56:33.052Z,102343.91
2022-10-18T19:59:00.063Z,102353.47
2022-10-18T20:01:27.903Z,102356.81
2022-10-18T20:03:55.062Z,102348.25
2022-10-18T20:06:21.866Z,102350.38
2022-10-18T20:08:49.046Z,102353.25
2022-10-18T20:11:18.087Z,102349.81
2022-10-18T20:13:45.700Z,102355.00
2022-10-18T20:16:14.133Z,102358.78
2022-10-18T20:18:43.120Z,102369.06
2022-10-18T20:21:12.363Z,102365.09
2022-10-18T20:23:40.799Z,102370.53
2022-10-18T20:26:18.186Z,102375.00
2022-10-18T20:28:59.833Z,102371.78
2022-10-18T20:31:31.216Z,102370.00
2022-10-18T20:34:03.004Z,102367.78
2022-10-18T20:36:31.985Z,102368.00
2022-10-18T20:38:59.466Z,102365.75
2022-10-18T20:41:28.924Z,102355.06
2022-10-18T20:44:01.004Z,102361.00
2022-10-18T20:46:32.119Z,102353.31
2022-10-18T20:48:58.860Z,102358.75
2022-10-18T20:51:25.890Z,102360.50
2022-10-18T20:53:53.603Z,102361.84
2022-10-18T20:56:23.232Z,102355.31
2022-10-18T20:58:51.711Z,102349.75
2022-10-18T21:01:24.000Z,102348.13
2022-10-18T21:03:52.461Z,102348.38
2022-10-18T21:06:24.354Z,102344.13
2022-10-18T21:08:59.439Z,102341.97
2022-10-18T21:11:27.873Z,102352.03
2022-10-18T21:13:57.441Z,102346.50
2022-10-18T21:16:24.071Z,102362.25
2022-10-18T21:18:50.732Z,102360.59
2022-10-18T21:21:20.214Z,102369.22
2022-10-18T21:23:47.293Z,102358.91
2022-10-18T21:26:19.790Z,102357.38
2022-10-18T21:28:47.243Z,102358.78
2022-10-18T21:31:19.502Z,102356.81
2022-10-18T21:33:46.965Z,102360.34
2022-10-18T21:36:14.581Z,102352.66
2022-10-18T21:38:45.451Z,102356.31
2022-10-18T21:41:13.946Z,102363.88
2022-10-18T21:43:45.004Z,102367.66
2022-10-18T21:46:13.802Z,102361.03
2022-10-18T21:48:47.032Z,102369.53
2022-10-18T21:51:15.745Z,102370.38
2022-10-18T21:53:43.841Z,102371.00
2022-10-18T21:56:13.610Z,102362.94
2022-10-18T21:58:40.698Z,102367.56
2022-10-18T22:01:15.231Z,102366.72
2022-10-18T22:03:41.915Z,102366.72
2022-10-18T22:06:14.367Z,102375.59
2022-10-18T22:08:42.185Z,102378.56
2022-10-18T22:11:09.502Z,102372.03
2022-10-18T22:13:36.299Z,102367.91
2022-10-18T22:16:04.690Z,102364.84
2022-10-18T22:18:32.735Z,102364.00
2022-10-18T22:21:02.949Z,102365.66
2022-10-18T22:23:37.744Z,102372.41
2022-10-18T22:26:07.639Z,102376.44
2022-10-18T22:28:36.116Z,102364.59
2022-10-18T22:31:02.721Z,102364.38
2022-10-18T22:33:29.858Z,102364.59
2022-10-18T22:35:56.770Z,102361.41
2022-10-18T22:38:23.620Z,102353.59
2022-10-18T22:40:50.134Z,102354.59
2022-10-18T22:43:16.595Z,102361.22
2022-10-18T22:45:43.370Z,102360.97
2022-10-18T22:48:09.791Z,102353.88
2022-10-18T22:50:36.360Z,102357.91
2022-10-18T22:53:02.839Z,102349.06
2022-10-18T22:55:29.447Z,102346.59
2022-10-18T22:57:56.332Z,102334.63
2022-10-18T23:00:22.893Z,102334.41
2022-10-18T23:02:49.893Z,102327.81
2022-10-18T23:05:16.428Z,102332.84
2022-10-18T23:07:47.837Z,102326.84
2022-10-18T23:10:14.624Z,102328.03
2022-10-18T23:12:41.111Z,102334.16
2022-10-18T23:15:08.110Z,102331.53
2022-10-18T23:17:34.780Z,102332.00
2022-10-18T23:20:02.792Z,102332.81
2022-10-18T23:22:29.427Z,102334.13
2022-10-18T23:24:56.094Z,102330.56
2022-10-18T23:27:22.532Z,102327.25
2022-10-18T23:29:48.985Z,102326.56
2022-10-18T23:32:15.471Z,102342.03
2022-10-18T23:34:41.890Z,102345.22
2022-10-18T23:37:08.360Z,102346.50
2022-10-18T23:39:34.798Z,102331.84
2022-10-18T23:42:01.883Z,102330.78
2022-10-18T23:44:28.378Z,102329.97
2022-10-18T23:46:54.950Z,102326.19
2022-10-18T23:49:21.391Z,102333.13
2022-10-18T23:51:48.047Z,102340.50
2022-10-18T23:54:14.464Z,102336.94
2022-10-18T23:56:41.011Z,102330.66
2022-10-18T23:59:07.477Z,102335.03
